Time,TemperatureF,DewpointF,PressureIn,WindDirection,WindDirectionDegrees,WindSpeedMPH,WindSpeedGustMPH,Humidity,HourlyPrecipIn,Conditions,Clouds,dailyrainin,SoftwareType,DateUTC
2013-01-12 00:13:00,5.0,-6.0,29.89,West,273,10.0,19.0,60,0.00,,,0.00,weatherlink.com 1.10,2013-01-12 07:13:00,
2013-01-12 00:28:00,4.9,-7.0,29.90,WNW,288,7.0,20.0,58,0.00,,,0.00,weatherlink.com 1.10,2013-01-12 07:28:00,
2013-01-12 00:44:00,4.7,-8.0,29.91,West,273,15.0,20.0,57,0.00,,,0.00,weatherlink.com 1.10,2013-01-12 07:44:00,
2013-01-12 00:58:00,4.6,-8.0,29.91,SW,233,19.0,20.0,56,0.00,,,0.00,weatherlink.com 1.10,2013-01-12 07:58:00,
2013-01-12 01:13:00,4.6,-8.0,29.91,West,276,5.0,18.0,55,0.00,,,0.00,weatherlink.com 1.10,2013-01-12 08:13:00,
2013-01-12 01:28:00,4.4,-8.0,29.91,SW,228,7.0,21.0,56,0.00,,,0.00,weatherlink.com 1.10,2013-01-12 08:28:00,
2013-01-12 01:43:00,4.2,-8.0,29.93,WSW,239,12.0,24.0,58,0.00,,,0.00,weatherlink.com 1.10,2013-01-12 08:43:00,
2013-01-12 01:58:00,4.0,-8.0,29.93,West,276,3.0,21.0,58,0.00,,,0.00,weatherlink.com 1.10,2013-01-12 08:58:00,
2013-01-12 02:13:00,4.0,-8.0,29.95,West,260,11.0,17.0,59,0.00,,,0.00,weatherlink.com 1.10,2013-01-12 09:13:00,
2013-01-12 02:28:00,3.9,-7.0,29.96,WSW,252,13.0,19.0,60,0.00,,,0.00,weatherlink.com 1.10,2013-01-12 09:28:00,
2013-01-12 02:43:00,3.8,-8.0,29.96,West,280,1.0,20.0,59,0.00,,,0.00,weatherlink.com 1.10,2013-01-12 09:43:00,
2013-01-12 02:58:00,3.6,-8.0,29.96,WSW,243,1.0,11.0,59,0.00,,,0.00,weatherlink.com 1.10,2013-01-12 09:58:00,
2013-01-12 03:13:00,3.5,-9.0,29.97,NW,316,2.0,13.0,57,0.00,,,0.00,weatherlink.com 1.10,2013-01-12 10:13:00,
2013-01-12 03:28:00,3.3,-9.0,29.97,SSE,167,2.0,10.0,57,0.00,,,0.00,weatherlink.com 1.10,2013-01-12 10:28:00,
2013-01-12 03:43:00,3.2,-9.0,29.97,NNW,342,4.0,11.0,57,0.00,,,0.00,weatherlink.com 1.10,2013-01-12 10:43:00,
2013-01-12 03:59:00,3.3,-10.0,29.98,NW,308,7.0,20.0,55,0.00,,,0.00,weatherlink.com 1.10,2013-01-12 10:59:00,
2013-01-12 04:14:00,3.0,-10.0,29.98,WNW,297,3.0,11.0,55,0.00,,,0.00,weatherlink.com 1.10,2013-01-12 11:14:00,
2013-01-12 04:29:00,2.8,-9.0,29.98,NW,326,9.0,14.0,59,0.00,,,0.00,weatherlink.com 1.10,2013-01-12 11:29:00,
2013-01-12 04:44:00,2.6,-9.0,29.99,WSW,243,6.0,10.0,58,0.00,,,0.00,weatherlink.com 1.10,2013-01-12 11:44:00,
2013-01-12 04:59:00,2.8,-8.0,29.99,WNW,283,6.0,12.0,60,0.00,,,0.00,weatherlink.com 1.10,2013-01-12 11:59:00,
2013-01-12 05:14:00,2.9,-9.0,30.00,West,280,11.0,18.0,58,0.00,,,0.00,weatherlink.com 1.10,2013-01-12 12:14:00,
2013-01-12 05:29:00,2.7,-9.0,30.01,West,274,6.0,16.0,57,0.00,,,0.00,weatherlink.com 1.10,2013-01-12 12:29:00,
2013-01-12 05:44:00,2.5,-10.0,30.02,WNW,293,6.0,14.0,56,0.00,,,0.00,weatherlink.com 1.10,2013-01-12 12:44:00,
2013-01-12 05:59:00,2.8,-11.0,30.02,WNW,298,4.0,17.0,53,0.00,,,0.00,weatherlink.com 1.10,2013-01-12 12:59:00,
2013-01-12 06:14:00,2.6,-11.0,30.03,WSW,250,4.0,14.0,52,0.00,,,0.00,weatherlink.com 1.10,2013-01-12 13:14:00,
2013-01-12 06:29:00,2.4,-12.0,30.04,WNW,293,6.0,13.0,51,0.00,,,0.00,weatherlink.com 1.10,2013-01-12 13:29:00,
2013-01-12 06:44:00,2.3,-12.0,30.05,WSW,246,2.0,18.0,52,0.00,,,0.00,weatherlink.com 1.10,2013-01-12 13:44:00,
2013-01-12 06:59:00,2.1,-12.0,30.06,West,277,2.0,14.0,53,0.00,,,0.00,weatherlink.com 1.10,2013-01-12 13:59:00,
2013-01-12 07:14:00,1.6,-12.0,30.09,WSW,243,2.0,6.0,54,0.00,,,0.00,weatherlink.com 1.10,2013-01-12 14:14:00,
2013-01-12 07:29:00,1.3,-12.0,30.10,WSW,241,1.0,6.0,55,0.00,,,0.00,weatherlink.com 1.10,2013-01-12 14:29:00,
2013-01-12 07:44:00,1.0,-12.0,30.11,West,262,1.0,6.0,55,0.00,,,0.00,weatherlink.com 1.10,2013-01-12 14:44:00,
2013-01-12 07:59:00,1.9,-12.0,30.12,West,273,3.0,9.0,53,0.00,,,0.00,weatherlink.com 1.10,2013-01-12 14:59:00,
2013-01-12 08:14:00,4.2,-12.0,30.14,WNW,284,12.0,13.0,47,0.00,,,0.00,weatherlink.com 1.10,2013-01-12 15:14:00,
2013-01-12 08:29:00,5.2,-12.0,30.15,SW,231,3.0,10.0,45,0.00,,,0.00,weatherlink.com 1.10,2013-01-12 15:29:00,
2013-01-12 08:44:00,5.9,-12.0,30.16,West,276,10.0,12.0,43,0.00,,,0.00,weatherlink.com 1.10,2013-01-12 15:44:00,
2013-01-12 09:01:00,6.3,-12.0,30.16,WNW,295,3.0,14.0,42,0.00,,,0.00,weatherlink.com 1.10,2013-01-12 16:01:00,
2013-01-12 09:15:00,7.0,-12.0,30.16,WSW,256,7.0,11.0,41,0.00,,,0.00,weatherlink.com 1.10,2013-01-12 16:15:00,
2013-01-12 09:30:00,7.2,-12.0,30.16,West,271,5.0,15.0,40,0.00,,,0.00,weatherlink.com 1.10,2013-01-12 16:30:00,
2013-01-12 09:45:00,7.7,-13.0,30.16,West,269,2.0,12.0,39,0.00,,,0.00,weatherlink.com 1.10,2013-01-12 16:45:00,
2013-01-12 10:00:00,8.3,-12.0,30.16,West,278,4.0,10.0,39,0.00,,,0.00,weatherlink.com 1.10,2013-01-12 17:00:00,
2013-01-12 10:15:00,8.3,-13.0,30.17,SW,236,7.0,11.0,38,0.00,,,0.00,weatherlink.com 1.10,2013-01-12 17:15:00,
2013-01-12 10:30:00,8.7,-12.0,30.17,SSW,204,4.0,13.0,38,0.00,,,0.00,weatherlink.com 1.10,2013-01-12 17:30:00,
2013-01-12 10:45:00,9.5,-11.0,30.17,WNW,287,5.0,11.0,39,0.00,,,0.00,weatherlink.com 1.10,2013-01-12 17:45:00,
2013-01-12 11:00:00,9.7,-12.0,30.16,WSW,245,8.0,14.0,37,0.00,,,0.00,weatherlink.com 1.10,2013-01-12 18:00:00,
2013-01-12 11:15:00,10.0,-11.0,30.16,NW,309,1.0,14.0,38,0.00,,,0.00,weatherlink.com 1.10,2013-01-12 18:15:00,
2013-01-12 11:30:00,10.3,-12.0,30.15,WSW,245,10.0,14.0,36,0.00,,,0.00,weatherlink.com 1.10,2013-01-12 18:30:00,
2013-01-12 11:45:00,9.3,-13.0,30.14,West,276,5.0,13.0,36,0.00,,,0.00,weatherlink.com 1.10,2013-01-12 18:45:00,
2013-01-12 12:00:00,9.4,-13.0,30.13,West,273,7.0,13.0,35,0.00,,,0.00,weatherlink.com 1.10,2013-01-12 19:00:00,
2013-01-12 12:15:00,9.9,-12.0,30.12,WNW,302,8.0,13.0,37,0.00,,,0.00,weatherlink.com 1.10,2013-01-12 19:15:00,
2013-01-12 12:30:00,10.3,-12.0,30.12,NW,316,10.0,18.0,35,0.00,,,0.00,weatherlink.com 1.10,2013-01-12 19:30:00,
2013-01-12 12:45:00,10.4,-13.0,30.11,NW,315,7.0,17.0,34,0.00,,,0.00,weatherlink.com 1.10,2013-01-12 19:45:00,
2013-01-12 13:00:00,11.0,-13.0,30.11,WSW,250,2.0,15.0,33,0.00,,,0.00,weatherlink.com 1.10,2013-01-12 20:00:00,
2013-01-12 13:15:00,11.3,-12.0,30.11,WNW,291,5.0,12.0,34,0.00,,,0.00,weatherlink.com 1.10,2013-01-12 20:15:00,
2013-01-12 13:30:00,11.6,-12.0,30.11,WSW,238,3.0,12.0,33,0.00,,,0.00,weatherlink.com 1.10,2013-01-12 20:30:00,
2013-01-12 13:45:00,11.8,-12.0,30.11,WSW,245,5.0,14.0,33,0.00,,,0.00,weatherlink.com 1.10,2013-01-12 20:45:00,
2013-01-12 14:00:00,12.4,-12.0,30.11,WNW,298,10.0,14.0,32,0.00,,,0.00,weatherlink.com 1.10,2013-01-12 21:00:00,
2013-01-12 14:15:00,11.3,-14.0,30.11,WSW,252,3.0,16.0,31,0.00,,,0.00,weatherlink.com 1.10,2013-01-12 21:15:00,
2013-01-12 14:30:00,11.6,-12.0,30.12,NW,304,8.0,16.0,33,0.00,,,0.00,weatherlink.com 1.10,2013-01-12 21:30:00,
2013-01-12 14:45:00,10.9,-12.0,30.13,WSW,245,4.0,16.0,35,0.00,,,0.00,weatherlink.com 1.10,2013-01-12 21:45:00,
2013-01-12 15:00:00,10.2,-12.0,30.13,WSW,245,8.0,14.0,36,0.00,,,0.00,weatherlink.com 1.10,2013-01-12 22:00:00,
2013-01-12 15:15:00,9.6,-7.0,30.14,NW,316,2.0,11.0,48,0.00,,,0.00,weatherlink.com 1.10,2013-01-12 22:15:00,
2013-01-12 15:30:00,7.2,-3.0,30.14,SSE,149,0.0,7.0,64,0.00,,,0.00,weatherlink.com 1.10,2013-01-12 22:30:00,
2013-01-12 15:45:00,7.3,-2.0,30.16,South,180,3.0,8.0,65,0.00,,,0.00,weatherlink.com 1.10,2013-01-12 22:45:00,
2013-01-12 16:00:00,7.2,-2.0,30.16,ESE,114,3.0,6.0,66,0.00,,,0.00,weatherlink.com 1.10,2013-01-12 23:00:00,
2013-01-12 16:15:00,6.5,-2.0,30.16,West,266,0.0,3.0,68,0.00,,,0.00,weatherlink.com 1.10,2013-01-12 23:15:00,
2013-01-12 16:30:00,3.5,-3.0,30.16,East,101,0.0,5.0,73,0.00,,,0.00,weatherlink.com 1.10,2013-01-12 23:30:00,
2013-01-12 16:45:00,1.9,-4.0,30.16,SE,132,0.0,4.0,76,0.00,,,0.00,weatherlink.com 1.10,2013-01-12 23:45:00,
2013-01-12 17:00:00,0.1,-5.0,30.18,East,91,1.0,4.0,79,0.00,,,0.00,weatherlink.com 1.10,2013-01-13 00:00:00,
2013-01-12 17:15:00,-1.4,-6.0,30.18,East,91,5.0,6.0,82,0.00,,,0.00,weatherlink.com 1.10,2013-01-13 00:15:00,
2013-01-12 17:30:00,-2.1,-6.0,30.20,WNW,301,0.0,4.0,83,0.00,,,0.00,weatherlink.com 1.10,2013-01-13 00:30:00,
2013-01-12 17:46:00,-2.9,-7.0,30.20,NNW,332,0.0,2.0,81,0.00,,,0.00,weatherlink.com 1.10,2013-01-13 00:46:00,
2013-01-12 18:01:00,-4.1,-9.0,30.21,NW,325,0.0,0.0,80,0.00,,,0.00,weatherlink.com 1.10,2013-01-13 01:01:00,
2013-01-12 18:16:00,-4.9,-9.0,30.22,NNE,25,0.0,1.0,81,0.00,,,0.00,weatherlink.com 1.10,2013-01-13 01:16:00,
2013-01-12 18:31:00,-5.2,-10.0,30.22,East,94,0.0,0.0,81,0.00,,,0.00,weatherlink.com 1.10,2013-01-13 01:31:00,
2013-01-12 18:46:00,-6.1,-11.0,30.23,NW,316,0.0,1.0,81,0.00,,,0.00,weatherlink.com 1.10,2013-01-13 01:46:00,
2013-01-12 19:01:00,-7.4,-12.0,30.23,NW,316,0.0,0.0,79,0.00,,,0.00,weatherlink.com 1.10,2013-01-13 02:01:00,
2013-01-12 19:16:00,-7.5,-12.0,30.24,WSW,253,0.0,1.0,80,0.00,,,0.00,weatherlink.com 1.10,2013-01-13 02:16:00,
2013-01-12 19:31:00,-8.0,-13.0,30.24,WSW,253,0.0,0.0,79,0.00,,,0.00,weatherlink.com 1.10,2013-01-13 02:31:00,
2013-01-12 19:46:00,-8.9,-14.0,30.24,SW,224,0.0,0.0,80,0.00,,,0.00,weatherlink.com 1.10,2013-01-13 02:46:00,
2013-01-12 20:01:00,-9.0,-13.0,30.25,West,269,0.0,2.0,82,0.00,,,0.00,weatherlink.com 1.10,2013-01-13 03:01:00,
2013-01-12 20:16:00,-10.0,-15.0,30.25,WNW,298,0.0,1.0,79,0.00,,,0.00,weatherlink.com 1.10,2013-01-13 03:16:00,
2013-01-12 20:31:00,-11.0,-16.0,30.26,NNE,19,0.0,1.0,78,0.00,,,0.00,weatherlink.com 1.10,2013-01-13 03:31:00,
2013-01-12 20:46:00,-10.7,-15.0,30.26,WSW,256,0.0,2.0,80,0.00,,,0.00,weatherlink.com 1.10,2013-01-13 03:46:00,
2013-01-12 21:01:00,-10.2,-15.0,30.26,WNW,287,0.0,2.0,81,0.00,,,0.00,weatherlink.com 1.10,2013-01-13 04:01:00,
2013-01-12 21:16:00,-10.1,-14.0,30.26,WNW,284,1.0,3.0,82,0.00,,,0.00,weatherlink.com 1.10,2013-01-13 04:16:00,
2013-01-12 21:31:00,-9.9,-14.0,30.27,WNW,285,1.0,2.0,82,0.00,,,0.00,weatherlink.com 1.10,2013-01-13 04:31:00,
2013-01-12 21:46:00,-10.6,-15.0,30.27,South,191,0.0,2.0,79,0.00,,,0.00,weatherlink.com 1.10,2013-01-13 04:46:00,
2013-01-12 22:01:00,-11.3,-16.0,30.28,SSW,193,1.0,3.0,79,0.00,,,0.00,weatherlink.com 1.10,2013-01-13 05:01:00,
2013-01-12 22:16:00,-11.7,-16.0,30.29,WNW,285,1.0,2.0,79,0.00,,,0.00,weatherlink.com 1.10,2013-01-13 05:16:00,
2013-01-12 22:31:00,-11.9,-17.0,30.29,NNW,333,0.0,1.0,79,0.00,,,0.00,weatherlink.com 1.10,2013-01-13 05:31:00,
2013-01-12 22:46:00,-11.6,-16.0,30.30,NW,323,0.0,1.0,80,0.00,,,0.00,weatherlink.com 1.10,2013-01-13 05:46:00,
2013-01-12 23:01:00,-11.2,-16.0,30.30,NW,321,1.0,2.0,80,0.00,,,0.00,weatherlink.com 1.10,2013-01-13 06:01:00,
2013-01-12 23:16:00,-10.9,-15.0,30.30,West,262,1.0,2.0,80,0.00,,,0.00,weatherlink.com 1.10,2013-01-13 06:16:00,
2013-01-12 23:31:00,-11.0,-16.0,30.30,West,266,0.0,1.0,80,0.00,,,0.00,weatherlink.com 1.10,2013-01-13 06:31:00,
2013-01-12 23:46:00,-11.2,-16.0,30.31,West,266,0.0,1.0,80,0.00,,,0.00,weatherlink.com 1.10,2013-01-13 06:46:00,